Time;durP1;ratioP1;P1;durP2;ratioP2;P2;SDS_P1;SDS_P2;PMS_P1;PMS_P2;Temp;Humidity;BMP_temperature;BMP_pressure;BME280_temperature;BME280_humidity;BME280_pressure;Samples;Min_cycle;Max_cycle;Signal;HPM_P1;HPM_P2
2023/08/24 00:00:46;;;;;;;11.48;10.27;;;14.10;99.90;;;;;;6129190;23;20028;-78
2023/08/24 00:03:17;;;;;;;18.08;16.40;;;14.10;99.90;;;;;;6127867;23;20457;-78
2023/08/24 00:05:43;;;;;;;16.98;15.38;;;14.10;99.90;;;;;;6153201;23;20009;-79
2023/08/24 00:08:09;;;;;;;16.55;15.02;;;14.10;99.90;;;;;;6128389;23;20015;-78
2023/08/24 00:10:37;;;;;;;17.75;16.05;;;14.00;99.90;;;;;;6128762;23;20048;-79
2023/08/24 00:13:03;;;;;;;11.50;10.43;;;14.00;99.90;;;;;;6128243;23;20010;-78
2023/08/24 00:15:30;;;;;;;17.52;15.75;;;14.00;99.90;;;;;;6153006;23;20017;-79
2023/08/24 00:17:56;;;;;;;11.38;10.48;;;13.90;99.90;;;;;;6128299;23;20411;-78
2023/08/24 00:20:22;;;;;;;13.65;12.43;;;13.90;99.90;;;;;;6152977;23;20017;-78
2023/08/24 00:22:48;;;;;;;12.15;11.05;;;13.90;99.90;;;;;;6128333;23;20010;-78
2023/08/24 00:25:18;;;;;;;20.90;18.90;;;13.80;99.90;;;;;;6128075;23;20097;-78
2023/08/24 00:27:44;;;;;;;13.30;12.10;;;13.80;99.90;;;;;;6128425;23;20013;-79
2023/08/24 00:30:10;;;;;;;17.83;16.23;;;13.80;99.90;;;;;;6128245;23;20093;-78
2023/08/24 00:32:36;;;;;;;20.13;18.38;;;13.90;99.90;;;;;;6127748;23;20049;-79
2023/08/24 00:35:04;;;;;;;19.27;17.30;;;13.90;99.90;;;;;;6127725;23;20024;-78
2023/08/24 00:37:30;;;;;;;13.45;12.13;;;13.90;99.90;;;;;;6128505;23;20474;-79
2023/08/24 00:39:56;;;;;;;12.85;11.60;;;13.90;99.90;;;;;;6128450;23;20020;-78
2023/08/24 00:42:24;;;;;;;12.50;11.30;;;13.90;99.90;;;;;;6127826;23;20454;-78
2023/08/24 00:44:50;;;;;;;13.60;12.40;;;13.90;99.90;;;;;;6128126;23;20026;-78
2023/08/24 00:47:17;;;;;;;14.48;12.95;;;13.90;99.90;;;;;;6152879;23;20464;-78
2023/08/24 00:49:46;;;;;;;20.00;18.00;;;13.90;99.90;;;;;;6128029;23;20018;-78
2023/08/24 00:52:12;;;;;;;18.35;16.63;;;13.90;99.90;;;;;;6128650;23;20350;-78
2023/08/24 00:54:39;;;;;;;16.65;14.98;;;14.00;99.90;;;;;;6129295;23;20060;-78
2023/08/24 00:57:06;;;;;;;17.70;16.02;;;14.10;99.90;;;;;;6128073;23;20048;-80
2023/08/24 00:59:33;;;;;;;17.20;15.60;;;14.20;99.90;;;;;;6128297;23;20429;-78
2023/08/24 01:02:01;;;;;;;18.85;16.95;;;14.30;99.90;;;;;;6128434;23;20057;-78
2023/08/24 01:04:27;;;;;;;17.42;15.75;;;14.40;99.90;;;;;;6128468;23;20025;-78
2023/08/24 01:06:53;;;;;;;18.75;17.05;;;14.40;99.90;;;;;;6128348;23;20018;-78
2023/08/24 01:09:21;;;;;;;17.63;16.05;;;14.40;99.90;;;;;;6152192;23;20013;-79
2023/08/24 01:12:02;;;;;;;17.50;15.25;;;14.50;99.90;;;;;;6126674;23;20014;-78
2023/08/24 01:14:45;;;;;;;17.45;15.85;;;14.60;99.90;;;;;;6127719;23;20013;-78
2023/08/24 01:17:16;;;;;;;16.55;15.05;;;14.60;99.90;;;;;;6127707;23;20390;-79
2023/08/24 01:19:44;;;;;;;18.63;16.77;;;14.70;99.90;;;;;;6127773;23;20124;-78
2023/08/24 01:22:43;;;;;;;16.05;14.23;;;14.70;99.90;;;;;;6127825;23;20014;-79
2023/08/24 01:25:16;;;;;;;17.63;15.13;;;14.80;99.90;;;;;;6153037;23;20013;-79
2023/08/24 01:27:43;;;;;;;16.20;14.63;;;14.80;99.90;;;;;;6128506;23;20060;-78
2023/08/24 01:30:12;;;;;;;16.33;14.65;;;14.90;99.90;;;;;;6128006;23;20325;-79
2023/08/24 01:32:38;;;;;;;18.42;16.77;;;14.90;99.90;;;;;;6127700;23;20343;-79
2023/08/24 01:35:08;;;;;;;14.13;12.70;;;14.90;99.90;;;;;;6153025;23;20013;-78
2023/08/24 01:37:35;;;;;;;14.60;13.20;;;14.90;99.90;;;;;;6128119;23;20020;-80
2023/08/24 01:40:14;;;;;;;16.35;14.57;;;14.90;99.90;;;;;;6127558;23;20144;-80
2023/08/24 01:42:52;;;;;;;16.58;14.80;;;15.00;99.90;;;;;;6128164;23;20031;-79
2023/08/24 01:45:19;;;;;;;16.90;15.13;;;15.00;99.90;;;;;;6128176;23;20018;-79
2023/08/24 01:47:48;;;;;;;15.30;13.80;;;15.10;99.90;;;;;;6127551;23;20018;-78
2023/08/24 01:50:14;;;;;;;16.52;14.88;;;15.10;99.90;;;;;;6127651;23;20053;-79
2023/08/24 01:52:42;;;;;;;19.63;14.77;;;15.20;99.90;;;;;;6127752;23;20104;-78
2023/08/24 01:55:08;;;;;;;19.13;16.65;;;15.20;99.90;;;;;;6127872;23;20014;-79
2023/08/24 01:57:34;;;;;;;16.92;15.10;;;15.20;99.90;;;;;;6128026;23;20088;-79
2023/08/24 02:00:00;;;;;;;18.33;16.42;;;15.30;99.90;;;;;;6127742;23;20105;-78
2023/08/24 02:02:26;;;;;;;16.20;14.68;;;15.20;99.90;;;;;;6127503;23;20028;-79
2023/08/24 02:04:51;;;;;;;17.85;16.08;;;15.30;99.90;;;;;;6128238;23;20013;-79
2023/08/24 02:07:17;;;;;;;17.83;16.20;;;15.30;99.90;;;;;;6127473;23;20014;-79
2023/08/24 02:09:43;;;;;;;17.63;15.95;;;15.30;99.90;;;;;;6127564;23;20407;-79
2023/08/24 02:12:10;;;;;;;17.08;14.77;;;15.20;99.90;;;;;;6152207;23;20450;-78
2023/08/24 02:14:35;;;;;;;18.75;16.70;;;15.30;99.90;;;;;;6127840;23;20025;-79
2023/08/24 02:17:01;;;;;;;20.90;18.05;;;15.40;99.90;;;;;;6127762;23;20514;-79
2023/08/24 02:19:27;;;;;;;17.77;16.17;;;15.40;99.90;;;;;;6127785;23;20009;-78
2023/08/24 02:21:53;;;;;;;18.60;16.90;;;15.30;99.90;;;;;;6127122;23;20009;-79
2023/08/24 02:24:19;;;;;;;18.83;17.02;;;15.40;99.90;;;;;;6127574;23;20021;-79
2023/08/24 02:26:45;;;;;;;15.65;14.25;;;15.30;99.90;;;;;;6127541;23;20388;-78
2023/08/24 02:29:11;;;;;;;17.48;15.75;;;15.30;99.90;;;;;;6127614;23;20024;-79
2023/08/24 02:31:37;;;;;;;28.63;22.70;;;15.30;99.90;;;;;;6160689;23;20022;-84
2023/08/24 02:34:03;;;;;;;19.50;17.40;;;15.20;99.90;;;;;;6147602;23;20501;-84
2023/08/24 02:36:31;;;;;;;17.45;15.98;;;15.30;99.90;;;;;;6147301;23;20346;-84
2023/08/24 02:38:57;;;;;;;18.38;16.58;;;15.30;99.90;;;;;;6171698;23;20016;-84
2023/08/24 02:41:23;;;;;;;18.35;16.65;;;15.30;99.90;;;;;;6145902;23;20010;-85
2023/08/24 02:43:48;;;;;;;18.27;16.65;;;15.30;99.90;;;;;;6142261;23;20352;-83
2023/08/24 02:46:14;;;;;;;20.67;18.80;;;15.20;99.90;;;;;;6135476;23;20009;-84
2023/08/24 02:48:40;;;;;;;17.38;15.68;;;15.20;99.90;;;;;;6133875;23;20497;-83
2023/08/24 02:51:06;;;;;;;20.15;18.17;;;15.20;99.90;;;;;;6133219;23;20014;-84
2023/08/24 02:53:32;;;;;;;21.27;19.08;;;15.20;99.90;;;;;;6181838;23;20468;-84
2023/08/24 02:55:58;;;;;;;22.02;18.52;;;15.20;99.90;;;;;;6133253;23;20014;-84
2023/08/24 02:58:24;;;;;;;20.90;18.75;;;15.10;99.90;;;;;;6134311;23;20009;-84
2023/08/24 03:00:49;;;;;;;20.33;18.42;;;15.20;99.90;;;;;;6133799;23;20092;-85
2023/08/24 03:03:16;;;;;;;23.33;20.88;;;15.10;99.90;;;;;;6184132;23;20051;-84
2023/08/24 03:05:54;;;;;;;16.83;15.10;;;15.20;99.90;;;;;;6133247;23;20021;-84
2023/08/24 03:08:20;;;;;;;16.90;15.45;;;15.10;99.90;;;;;;6135637;23;20484;-84
2023/08/24 03:10:46;;;;;;;18.08;16.27;;;15.10;99.90;;;;;;6134154;23;20017;-84
2023/08/24 03:13:11;;;;;;;19.48;17.48;;;15.20;99.90;;;;;;6135957;23;20005;-84
2023/08/24 03:15:37;;;;;;;20.10;18.13;;;15.10;99.90;;;;;;6185078;23;20072;-84
2023/08/24 03:18:03;;;;;;;18.58;16.77;;;15.10;99.90;;;;;;6135766;23;20010;-84
2023/08/24 03:20:29;;;;;;;17.10;15.40;;;15.10;99.90;;;;;;6136150;23;20331;-84
2023/08/24 03:22:55;;;;;;;16.23;14.73;;;15.10;99.90;;;;;;6136041;23;20069;-84
2023/08/24 03:25:21;;;;;;;19.17;17.27;;;15.00;99.90;;;;;;6136800;23;20020;-83
2023/08/24 03:27:47;;;;;;;16.45;14.98;;;14.90;99.90;;;;;;6184837;23;20092;-84
2023/08/24 03:30:13;;;;;;;16.58;15.07;;;14.90;99.90;;;;;;6135996;23;20430;-83
2023/08/24 03:32:41;;;;;;;15.93;14.50;;;14.90;99.90;;;;;;6137336;23;20474;-84
2023/08/24 03:35:07;;;;;;;22.23;20.02;;;14.80;99.90;;;;;;6185709;23;20028;-84
2023/08/24 03:37:33;;;;;;;21.50;19.40;;;14.80;99.90;;;;;;6136269;23;20040;-84
2023/08/24 03:39:59;;;;;;;16.38;14.85;;;14.80;99.90;;;;;;6137498;23;20017;-84
2023/08/24 03:42:24;;;;;;;15.90;14.30;;;14.70;99.90;;;;;;6137444;23;20066;-85
2023/08/24 03:44:50;;;;;;;15.70;14.10;;;14.60;99.90;;;;;;6139261;23;20014;-83
2023/08/24 03:47:16;;;;;;;15.50;13.95;;;14.60;99.90;;;;;;6140005;23;20014;-84
2023/08/24 03:49:43;;;;;;;15.75;14.50;;;14.60;99.90;;;;;;6139069;23;20009;-84
2023/08/24 03:52:09;;;;;;;15.88;14.38;;;14.50;99.90;;;;;;6138730;23;20027;-85
2023/08/24 03:54:34;;;;;;;18.35;16.52;;;14.50;99.90;;;;;;6189401;23;20065;-84
2023/08/24 03:57:00;;;;;;;19.77;17.90;;;14.40;99.90;;;;;;6139510;23;20393;-84
2023/08/24 03:59:26;;;;;;;26.75;23.52;;;14.40;99.90;;;;;;6139455;23;20037;-84
2023/08/24 04:01:52;;;;;;;25.45;22.95;;;14.30;99.90;;;;;;6188490;23;20009;-84
2023/08/24 04:04:30;;;;;;;28.75;25.05;;;14.40;99.90;;;;;;6140270;23;20069;-84
2023/08/24 04:06:56;;;;;;;23.08;20.77;;;14.50;99.90;;;;;;6140984;23;20022;-84
2023/08/24 04:09:21;;;;;;;18.73;17.00;;;14.50;99.90;;;;;;6141263;23;20046;-84
2023/08/24 04:11:47;;;;;;;24.27;21.80;;;14.40;99.90;;;;;;6141786;23;20033;-84
2023/08/24 04:14:13;;;;;;;18.80;17.13;;;14.40;99.90;;;;;;6142624;23;20014;-84
2023/08/24 04:16:39;;;;;;;37.95;25.20;;;14.40;99.90;;;;;;6141941;23;20037;-84
2023/08/24 04:19:05;;;;;;;19.45;17.55;;;14.30;99.90;;;;;;6142951;23;20014;-84
2023/08/24 04:21:30;;;;;;;17.52;16.05;;;14.30;99.90;;;;;;6193054;23;20014;-83
2023/08/24 04:23:56;;;;;;;20.08;18.08;;;14.30;99.90;;;;;;6192153;23;20018;-84
2023/08/24 04:26:22;;;;;;;17.63;16.13;;;14.10;99.90;;;;;;6143740;23;20009;-84
2023/08/24 04:28:47;;;;;;;20.35;18.55;;;14.10;99.90;;;;;;6145185;23;20048;-84
2023/08/24 04:31:13;;;;;;;19.90;18.00;;;14.10;99.90;;;;;;6144992;23;20014;-84
2023/08/24 04:33:39;;;;;;;25.98;21.30;;;14.10;99.90;;;;;;6145774;23;20029;-84
2023/08/24 04:36:04;;;;;;;18.83;17.02;;;14.00;99.90;;;;;;6146799;23;20014;-83
2023/08/24 04:38:30;;;;;;;19.17;17.45;;;14.00;99.90;;;;;;6146952;23;20018;-84
2023/08/24 04:40:56;;;;;;;35.45;26.05;;;13.90;99.90;;;;;;6195687;23;20041;-85
2023/08/24 04:43:23;;;;;;;19.95;18.20;;;13.90;99.90;;;;;;6197573;23;20013;-84
2023/08/24 04:45:54;;;;;;;20.73;18.83;;;13.90;99.90;;;;;;6148722;23;20024;-83
2023/08/24 04:48:24;;;;;;;41.90;32.10;;;13.80;99.90;;;;;;6149726;23;20020;-84
2023/08/24 04:50:50;;;;;;;40.70;33.17;;;13.80;99.90;;;;;;6148852;23;20040;-84
2023/08/24 04:53:18;;;;;;;39.42;34.05;;;13.90;99.90;;;;;;6148770;23;20013;-84
2023/08/24 04:55:44;;;;;;;41.65;33.33;;;14.00;99.90;;;;;;6148102;23;20052;-84
2023/08/24 04:58:10;;;;;;;37.22;33.22;;;14.10;99.90;;;;;;6146636;23;20445;-84
2023/08/24 05:00:36;;;;;;;37.15;33.17;;;14.20;99.90;;;;;;6132314;23;20013;-84
2023/08/24 05:03:06;;;;;;;43.97;31.70;;;14.20;99.90;;;;;;6179680;23;20450;-83
2023/08/24 05:05:33;;;;;;;58.65;38.90;;;14.30;99.90;;;;;;6132325;23;20020;-83
2023/08/24 05:07:59;;;;;;;34.58;30.45;;;14.40;99.90;;;;;;6132812;23;20329;-83
2023/08/24 05:10:25;;;;;;;31.42;28.27;;;14.50;99.90;;;;;;6183051;23;20014;-82
2023/08/24 05:12:51;;;;;;;35.75;32.00;;;14.40;99.90;;;;;;6131580;23;20020;-84
2023/08/24 05:15:17;;;;;;;35.65;31.27;;;14.40;99.90;;;;;;6157529;23;20016;-81
2023/08/24 05:17:43;;;;;;;33.10;29.67;;;14.50;99.90;;;;;;6181829;23;20533;-81
2023/08/24 05:20:10;;;;;;;29.95;26.77;;;14.60;99.90;;;;;;6183974;23;20017;-80
2023/08/24 05:22:36;;;;;;;34.45;30.77;;;14.70;99.90;;;;;;6186333;23;20060;-82
2023/08/24 05:25:02;;;;;;;30.75;27.75;;;14.80;99.90;;;;;;6185124;23;20319;-82
2023/08/24 05:27:28;;;;;;;31.35;27.92;;;14.90;99.90;;;;;;6179731;23;20092;-84
2023/08/24 05:29:54;;;;;;;28.10;25.50;;;14.90;99.90;;;;;;6133312;23;20024;-82
2023/08/24 05:32:19;;;;;;;25.15;22.80;;;15.00;99.90;;;;;;6184677;23;20402;-82
2023/08/24 05:34:46;;;;;;;27.70;25.00;;;15.10;99.90;;;;;;6132030;23;20025;-83
2023/08/24 05:37:11;;;;;;;26.63;24.13;;;15.20;99.90;;;;;;6178081;23;20060;-82
2023/08/24 05:39:38;;;;;;;24.67;22.33;;;15.20;99.90;;;;;;6133303;23;20013;-81
2023/08/24 05:42:04;;;;;;;27.27;23.67;;;15.30;99.90;;;;;;6182508;23;20340;-81
2023/08/24 05:44:29;;;;;;;24.80;22.50;;;15.40;99.90;;;;;;6136731;23;20045;-82
2023/08/24 05:46:55;;;;;;;24.45;22.15;;;15.40;99.90;;;;;;6136071;23;20025;-81
2023/08/24 05:49:21;;;;;;;23.50;21.42;;;15.50;99.90;;;;;;6135720;23;20017;-81
2023/08/24 05:51:46;;;;;;;22.83;20.73;;;15.60;99.90;;;;;;6184419;23;20013;-80
2023/08/24 05:54:13;;;;;;;21.30;19.30;;;15.60;99.90;;;;;;6187515;23;20537;-82
2023/08/24 05:56:39;;;;;;;21.17;19.17;;;15.80;99.90;;;;;;6182665;23;20017;-80
2023/08/24 05:59:04;;;;;;;20.95;18.92;;;15.90;99.90;;;;;;6188157;23;20061;-80
2023/08/24 06:01:30;;;;;;;17.92;16.35;;;16.00;99.90;;;;;;6183640;23;20013;-80
2023/08/24 06:03:55;;;;;;;17.80;15.90;;;16.20;99.90;;;;;;6183399;23;20020;-80
2023/08/24 06:06:21;;;;;;;17.48;15.68;;;16.30;99.90;;;;;;6134595;23;20009;-77
2023/08/24 06:08:47;;;;;;;17.35;15.65;;;16.40;99.90;;;;;;6134810;23;20016;-79
2023/08/24 06:11:12;;;;;;;17.58;15.88;;;16.50;99.90;;;;;;6135264;23;20013;-81
2023/08/24 06:13:38;;;;;;;16.55;14.90;;;16.50;99.90;;;;;;6185579;23;20020;-81
2023/08/24 06:16:04;;;;;;;17.92;16.30;;;16.50;99.90;;;;;;6186207;23;20354;-82
2023/08/24 06:18:29;;;;;;;16.10;14.60;;;16.50;99.90;;;;;;6129611;23;20049;-85
2023/08/24 06:20:55;;;;;;;16.38;14.77;;;16.40;99.90;;;;;;6130107;23;20017;-84
2023/08/24 06:23:21;;;;;;;18.63;15.68;;;16.60;99.90;;;;;;6180566;23;20453;-84
2023/08/24 06:25:47;;;;;;;17.35;15.55;;;16.70;99.90;;;;;;6131145;23;20349;-84
2023/08/24 06:28:13;;;;;;;16.30;14.65;;;16.70;99.90;;;;;;6179682;23;20076;-82
2023/08/24 06:30:40;;;;;;;16.75;15.15;;;16.80;99.90;;;;;;6180962;23;20248;-83
2023/08/24 06:33:07;;;;;;;17.75;16.05;;;16.90;99.90;;;;;;6132539;23;20056;-81
2023/08/24 06:35:33;;;;;;;18.05;16.25;;;17.00;99.90;;;;;;6182761;23;20033;-85
2023/08/24 06:38:00;;;;;;;18.67;16.83;;;17.10;99.90;;;;;;6179239;23;20045;-83
2023/08/24 06:40:25;;;;;;;17.63;15.73;;;17.10;99.90;;;;;;6131219;23;20012;-83
2023/08/24 06:42:51;;;;;;;17.27;15.77;;;17.10;99.90;;;;;;6132482;23;20439;-83
2023/08/24 06:45:18;;;;;;;19.40;17.45;;;17.20;99.90;;;;;;6130821;23;20052;-84
2023/08/24 06:47:44;;;;;;;18.73;16.98;;;17.20;99.90;;;;;;6129537;23;20342;-84
2023/08/24 06:50:10;;;;;;;18.40;16.73;;;17.30;99.90;;;;;;6130762;23;20096;-83
2023/08/24 06:52:35;;;;;;;17.65;15.95;;;17.40;99.90;;;;;;6182645;23;20092;-83
2023/08/24 06:55:02;;;;;;;18.55;16.75;;;17.50;99.90;;;;;;6182927;23;20014;-82
2023/08/24 06:57:27;;;;;;;17.98;16.27;;;17.60;99.90;;;;;;6133518;23;20013;-84
2023/08/24 06:59:53;;;;;;;18.13;16.42;;;17.60;99.90;;;;;;6182628;23;20013;-84
2023/08/24 07:02:19;;;;;;;17.98;16.27;;;17.70;99.90;;;;;;6183334;23;20060;-82
2023/08/24 07:04:44;;;;;;;17.38;15.68;;;17.80;99.90;;;;;;6181868;23;20373;-84
2023/08/24 07:07:10;;;;;;;19.75;17.90;;;17.90;99.90;;;;;;6182530;23;20013;-83
2023/08/24 07:09:36;;;;;;;18.52;16.65;;;18.00;99.90;;;;;;6183408;23;20064;-82
2023/08/24 07:12:03;;;;;;;18.00;16.40;;;18.00;99.90;;;;;;6132397;23;20013;-84
2023/08/24 07:14:29;;;;;;;18.27;16.60;;;18.20;99.90;;;;;;6129570;23;20021;-83
2023/08/24 07:16:54;;;;;;;20.17;18.13;;;18.30;99.90;;;;;;6129077;23;20005;-85
2023/08/24 07:19:20;;;;;;;20.40;18.42;;;18.30;99.90;;;;;;6128821;23;20041;-84
2023/08/24 07:21:46;;;;;;;17.65;15.90;;;18.40;99.90;;;;;;6129450;23;20006;-84
2023/08/24 07:24:12;;;;;;;17.58;15.98;;;18.50;99.90;;;;;;6179268;23;20013;-84
2023/08/24 07:26:37;;;;;;;17.90;16.13;;;18.60;99.90;;;;;;6179499;23;20443;-85
2023/08/24 07:29:03;;;;;;;16.70;15.10;;;18.70;99.90;;;;;;6131129;23;20083;-83
2023/08/24 07:31:28;;;;;;;16.52;14.85;;;18.80;99.90;;;;;;6129826;23;20018;-84
2023/08/24 07:33:54;;;;;;;16.58;15.07;;;18.90;99.90;;;;;;6130391;23;20060;-84
2023/08/24 07:36:20;;;;;;;18.58;16.75;;;18.90;99.90;;;;;;6179596;23;20088;-84
2023/08/24 07:38:49;;;;;;;17.15;14.18;;;19.00;99.90;;;;;;6179155;23;20006;-84
2023/08/24 07:41:17;;;;;;;20.05;18.00;;;19.10;99.90;;;;;;6129538;23;20350;-84
2023/08/24 07:43:42;;;;;;;18.20;16.50;;;19.20;99.90;;;;;;6153954;23;20006;-84
2023/08/24 07:46:09;;;;;;;17.88;16.08;;;19.20;99.90;;;;;;6128873;23;20446;-84
2023/08/24 07:48:34;;;;;;;15.35;13.80;;;19.30;99.90;;;;;;6129065;23;20010;-84
2023/08/24 07:51:00;;;;;;;16.67;15.10;;;19.40;99.90;;;;;;6178664;23;20012;-84
2023/08/24 07:53:26;;;;;;;18.23;16.35;;;19.40;99.90;;;;;;6178931;23;20006;-84
2023/08/24 07:55:54;;;;;;;15.75;14.25;;;19.40;99.90;;;;;;6129918;23;20446;-80
2023/08/24 07:58:19;;;;;;;15.02;13.57;;;19.60;99.90;;;;;;6178970;23;20111;-84
2023/08/24 08:00:46;;;;;;;17.33;15.60;;;19.70;99.90;;;;;;6129124;23;20009;-86
2023/08/24 08:03:11;;;;;;;15.65;14.18;;;19.80;99.90;;;;;;6178781;23;20041;-84
2023/08/24 08:05:37;;;;;;;17.38;15.85;;;19.90;99.90;;;;;;6129576;23;20045;-84
2023/08/24 08:08:04;;;;;;;17.23;15.48;;;19.90;99.90;;;;;;6178375;23;20525;-83
2023/08/24 08:10:30;;;;;;;15.50;13.90;;;20.00;99.90;;;;;;6128646;23;20048;-85
2023/08/24 08:12:55;;;;;;;16.17;14.57;;;20.10;99.90;;;;;;6129623;23;20021;-83
2023/08/24 08:15:21;;;;;;;16.63;14.93;;;20.30;99.90;;;;;;6178629;23;20020;-84
2023/08/24 08:17:46;;;;;;;16.05;14.48;;;20.40;99.90;;;;;;6178709;23;20005;-84
2023/08/24 08:20:14;;;;;;;15.68;14.05;;;20.50;99.90;;;;;;6129777;23;20045;-84
2023/08/24 08:22:40;;;;;;;16.98;15.38;;;20.60;99.90;;;;;;6128648;23;20009;-84
2023/08/24 08:25:06;;;;;;;17.95;15.82;;;20.80;99.90;;;;;;6130555;23;20095;-84
2023/08/24 08:27:33;;;;;;;15.82;14.05;;;20.90;99.90;;;;;;6178905;23;20016;-85
2023/08/24 08:29:59;;;;;;;16.35;14.75;;;21.10;99.90;;;;;;6128974;23;20442;-84
2023/08/24 08:32:27;;;;;;;14.90;13.45;;;21.40;99.90;;;;;;6129278;23;20568;-79
2023/08/24 08:34:56;;;;;;;13.25;11.90;;;22.00;99.90;;;;;;6128371;23;20017;-77
2023/08/24 08:37:22;;;;;;;12.80;11.60;;;22.70;99.90;;;;;;6128245;23;20017;-78
2023/08/24 08:39:48;;;;;;;13.15;11.95;;;23.40;99.90;;;;;;6128645;23;20006;-77
2023/08/24 08:42:14;;;;;;;12.27;11.07;;;24.10;99.90;;;;;;6109601;23;20065;-79
2023/08/24 08:44:43;;;;;;;12.73;11.43;;;24.70;99.90;;;;;;6099173;23;20338;-78
2023/08/24 08:47:11;;;;;;;11.43;10.25;;;25.00;99.90;;;;;;6098815;23;20010;-78
2023/08/24 08:49:38;;;;;;;12.00;10.90;;;25.20;99.90;;;;;;6099060;23;20025;-78
2023/08/24 08:52:05;;;;;;;12.95;10.45;;;25.50;99.90;;;;;;6099106;23;20439;-78
2023/08/24 08:54:32;;;;;;;11.50;10.27;;;25.80;99.90;;;;;;6123266;23;20290;-78
2023/08/24 08:56:59;;;;;;;11.77;9.90;;;26.10;99.90;;;;;;6098636;23;20010;-78
2023/08/24 08:59:29;;;;;;;11.90;10.70;;;26.30;99.90;;;;;;6098738;23;20018;-77
2023/08/24 09:02:00;;;;;;;11.82;10.18;;;26.40;99.90;;;;;;6098944;23;20427;-78
2023/08/24 09:04:29;;;;;;;11.88;10.10;;;26.50;99.90;;;;;;6099376;23;20394;-78
2023/08/24 09:06:56;;;;;;;12.10;10.85;;;26.50;99.90;;;;;;6122882;23;20021;-77
2023/08/24 09:09:22;;;;;;;11.95;10.77;;;26.40;99.90;;;;;;6098769;23;20014;-78
2023/08/24 09:11:48;;;;;;;11.80;9.88;;;26.30;99.90;;;;;;6099234;23;20021;-79
2023/08/24 09:14:14;;;;;;;10.43;9.43;;;26.20;99.90;;;;;;6099135;23;20014;-77
2023/08/24 09:16:41;;;;;;;13.05;9.75;;;26.10;99.90;;;;;;6123287;23;20010;-77
2023/08/24 09:19:09;;;;;;;11.65;10.27;;;26.10;99.90;;;;;;6098744;23;20010;-77
2023/08/24 09:21:41;;;;;;;11.70;10.55;;;26.10;99.90;;;;;;6122791;23;20455;-77
2023/08/24 09:24:07;;;;;;;11.40;10.30;;;26.10;99.90;;;;;;6099256;23;20323;-78
2023/08/24 09:26:36;;;;;;;12.20;11.07;;;26.00;99.90;;;;;;6098819;23;20014;-77
2023/08/24 09:29:15;;;;;;;11.88;10.77;;;25.90;99.90;;;;;;6123012;23;20021;-77
2023/08/24 09:31:43;;;;;;;12.52;10.90;;;25.90;99.90;;;;;;6098597;23;20017;-77
2023/08/24 09:34:09;;;;;;;12.30;11.10;;;25.70;99.90;;;;;;6098064;23;20017;-77
2023/08/24 09:36:36;;;;;;;11.55;10.55;;;25.50;99.90;;;;;;6123079;23;20022;-78
2023/08/24 09:39:10;;;;;;;11.45;10.38;;;25.40;99.90;;;;;;6123330;23;20343;-77
2023/08/24 09:41:39;;;;;;;13.40;12.10;;;25.20;99.90;;;;;;6098916;23;20009;-77
2023/08/24 09:44:06;;;;;;;12.55;11.45;;;24.90;99.90;;;;;;6098747;23;20324;-77
2023/08/24 09:46:32;;;;;;;13.18;12.05;;;24.70;99.90;;;;;;6098351;23;20018;-77
2023/08/24 09:49:00;;;;;;;13.02;11.77;;;24.60;99.90;;;;;;6098855;23;20006;-77
2023/08/24 09:51:29;;;;;;;12.85;11.75;;;24.40;99.90;;;;;;6098897;23;20379;-77
2023/08/24 09:54:00;;;;;;;12.93;11.73;;;24.40;99.90;;;;;;6122982;23;20024;-78
2023/08/24 09:56:28;;;;;;;12.43;11.20;;;24.10;99.90;;;;;;6099002;23;20443;-77
2023/08/24 09:58:57;;;;;;;12.60;11.40;;;24.10;99.90;;;;;;6122750;23;20014;-77
2023/08/24 10:01:24;;;;;;;13.45;12.18;;;24.00;99.90;;;;;;6098881;23;20089;-77
2023/08/24 10:03:56;;;;;;;11.75;10.65;;;23.80;99.90;;;;;;6122808;23;20100;-78
2023/08/24 10:06:27;;;;;;;12.20;10.90;;;23.70;99.90;;;;;;6098597;23;20010;-77
2023/08/24 10:08:58;;;;;;;11.95;10.95;;;23.70;99.90;;;;;;6098569;23;20014;-77
2023/08/24 10:11:28;;;;;;;15.38;12.10;;;23.70;99.90;;;;;;6122816;23;20029;-77
2023/08/24 10:14:06;;;;;;;13.20;11.88;;;23.50;99.90;;;;;;6122911;23;20010;-77
2023/08/24 10:16:34;;;;;;;14.48;13.00;;;23.50;99.90;;;;;;6099064;23;20064;-77
2023/08/24 10:19:01;;;;;;;12.43;11.25;;;23.40;99.90;;;;;;6098062;23;20106;-77
2023/08/24 10:21:28;;;;;;;12.70;11.35;;;23.40;99.90;;;;;;6122739;23;20010;-77
2023/08/24 10:23:57;;;;;;;12.07;10.90;;;23.30;99.90;;;;;;6123311;23;20014;-78
2023/08/24 10:26:24;;;;;;;11.88;10.68;;;23.20;99.90;;;;;;6097857;23;20087;-77
2023/08/24 10:28:53;;;;;;;11.85;10.82;;;23.20;99.90;;;;;;6098734;23;20119;-77
2023/08/24 10:31:20;;;;;;;11.63;10.43;;;23.20;99.90;;;;;;6098560;23;20065;-78
2023/08/24 10:33:46;;;;;;;11.80;10.60;;;23.10;99.90;;;;;;6123388;23;20327;-77
2023/08/24 10:36:17;;;;;;;12.93;10.95;;;23.00;99.90;;;;;;6122676;23;20014;-77
2023/08/24 10:38:43;;;;;;;12.02;10.95;;;23.00;99.90;;;;;;6122373;23;20018;-77
2023/08/24 10:41:13;;;;;;;12.00;10.80;;;23.10;99.90;;;;;;6098694;23;20021;-77
2023/08/24 10:43:40;;;;;;;12.65;10.40;;;23.00;99.90;;;;;;6122824;23;20016;-78
2023/08/24 10:46:13;;;;;;;12.70;10.77;;;23.00;99.90;;;;;;6123746;23;20045;-78
2023/08/24 10:48:42;;;;;;;12.25;10.95;;;23.00;99.90;;;;;;6122486;23;20025;-78
2023/08/24 10:51:14;;;;;;;13.13;11.30;;;23.00;99.90;;;;;;6098773;23;20050;-77
2023/08/24 10:53:45;;;;;;;11.80;10.23;;;23.00;99.90;;;;;;6123173;23;20078;-77
2023/08/24 10:56:15;;;;;;;11.73;10.52;;;23.10;99.90;;;;;;6100550;23;20101;-77
2023/08/24 10:58:42;;;;;;;12.52;10.52;;;23.10;99.90;;;;;;6099717;23;20096;-78
2023/08/24 11:01:15;;;;;;;13.57;12.15;;;23.20;99.90;;;;;;6100376;23;20111;-77
2023/08/24 11:03:42;;;;;;;14.32;13.02;;;23.30;99.90;;;;;;6126179;23;20018;-77
2023/08/24 11:06:19;;;;;;;15.73;14.13;;;23.40;99.90;;;;;;6124549;23;20010;-77
2023/08/24 11:08:46;;;;;;;14.57;13.38;;;23.40;99.90;;;;;;6123817;23;20481;-78
2023/08/24 11:11:22;;;;;;;15.55;14.05;;;23.50;99.90;;;;;;6123550;23;20021;-78
2023/08/24 11:14:18;;;;;;;15.98;14.48;;;23.50;99.90;;;;;;6100223;23;20447;-78
2023/08/24 11:16:47;;;;;;;15.52;13.95;;;23.40;99.90;;;;;;6099911;23;20025;-77
2023/08/24 11:19:14;;;;;;;16.88;14.63;;;23.50;99.90;;;;;;6148895;23;20351;-77
2023/08/24 11:21:41;;;;;;;16.63;15.00;;;23.50;99.90;;;;;;6099773;23;20096;-77
2023/08/24 11:24:07;;;;;;;15.48;14.25;;;23.60;99.90;;;;;;6123995;23;20450;-77
2023/08/24 11:26:34;;;;;;;15.32;14.00;;;23.70;99.90;;;;;;6123858;23;20068;-77
2023/08/24 11:29:00;;;;;;;14.95;13.55;;;23.70;99.90;;;;;;6099890;23;20018;-78
2023/08/24 11:31:25;;;;;;;14.93;13.52;;;23.80;99.90;;;;;;6099590;23;20021;-78
2023/08/24 11:33:55;;;;;;;16.02;14.63;;;23.90;99.90;;;;;;6124187;23;20017;-77
2023/08/24 11:36:23;;;;;;;16.95;15.35;;;23.80;99.90;;;;;;6099767;23;20017;-77
2023/08/24 11:38:49;;;;;;;15.88;14.38;;;23.90;99.90;;;;;;6123903;23;20383;-77
2023/08/24 11:41:17;;;;;;;16.05;14.70;;;24.00;99.90;;;;;;6125544;23;20013;-77
2023/08/24 11:43:44;;;;;;;16.27;14.85;;;24.20;99.90;;;;;;6100137;23;20383;-77
2023/08/24 11:46:10;;;;;;;16.98;15.57;;;24.20;99.90;;;;;;6100091;23;20355;-77
2023/08/24 11:48:39;;;;;;;15.50;14.05;;;24.20;99.90;;;;;;6123859;23;20014;-77
2023/08/24 11:51:09;;;;;;;15.30;13.85;;;24.20;99.90;;;;;;6123713;23;20018;-77
2023/08/24 11:53:42;;;;;;;17.02;15.60;;;24.10;99.90;;;;;;6123847;23;20024;-77
2023/08/24 11:56:14;;;;;;;17.85;16.27;;;24.00;99.90;;;;;;6125853;23;20076;-77
2023/08/24 11:58:47;;;;;;;17.45;15.75;;;23.90;99.90;;;;;;6123757;23;20018;-77
2023/08/24 12:01:13;;;;;;;20.38;18.58;;;23.90;99.90;;;;;;6099923;23;20028;-77
2023/08/24 12:03:39;;;;;;;16.10;14.60;;;23.90;99.90;;;;;;6099491;23;20037;-77
2023/08/24 12:06:16;;;;;;;18.13;16.63;;;24.00;99.90;;;;;;6099204;23;20021;-77
2023/08/24 12:08:46;;;;;;;18.60;16.95;;;24.00;99.90;;;;;;6099644;23;20014;-77
2023/08/24 12:11:18;;;;;;;16.80;15.43;;;24.10;99.90;;;;;;6099493;23;20018;-77
2023/08/24 12:13:49;;;;;;;18.52;17.02;;;24.20;99.90;;;;;;6123877;23;20013;-77
2023/08/24 12:16:16;;;;;;;18.20;16.60;;;24.30;99.90;;;;;;6098916;23;20080;-77
2023/08/24 12:18:57;;;;;;;15.70;14.23;;;24.30;99.90;;;;;;6099000;23;20010;-77
2023/08/24 12:21:23;;;;;;;16.25;14.73;;;24.40;99.90;;;;;;6098351;23;20451;-77
2023/08/24 12:23:59;;;;;;;14.77;13.52;;;24.50;99.90;;;;;;6098802;23;20351;-78
2023/08/24 12:26:29;;;;;;;15.15;13.65;;;24.60;99.90;;;;;;6099235;23;20021;-77
2023/08/24 12:29:00;;;;;;;14.38;13.13;;;24.70;99.90;;;;;;6122357;23;20014;-78